sensor_id;sensor_type;location;lat;lon;timestamp;P1;durP1;ratioP1;P2;durP2;ratioP2
6937;SDS011;40040;42.706;23.372;2023-07-20T00:02:23;4.60;;;2.80;;
6937;SDS011;40040;42.706;23.372;2023-07-20T00:04:50;3.88;;;2.30;;
6937;SDS011;40040;42.706;23.372;2023-07-20T00:07:17;3.42;;;2.22;;
6937;SDS011;40040;42.706;23.372;2023-07-20T00:09:44;6.25;;;2.55;;
6937;SDS011;40040;42.706;23.372;2023-07-20T00:12:11;4.57;;;2.33;;
6937;SDS011;40040;42.706;23.372;2023-07-20T00:14:38;7.15;;;2.45;;
6937;SDS011;40040;42.706;23.372;2023-07-20T00:17:05;5.53;;;2.70;;
6937;SDS011;40040;42.706;23.372;2023-07-20T00:19:33;6.32;;;2.50;;
6937;SDS011;40040;42.706;23.372;2023-07-20T00:22:00;6.00;;;2.53;;
6937;SDS011;40040;42.706;23.372;2023-07-20T00:24:30;3.10;;;2.45;;
6937;SDS011;40040;42.706;23.372;2023-07-20T00:26:57;2.78;;;2.58;;
6937;SDS011;40040;42.706;23.372;2023-07-20T00:29:26;4.60;;;2.50;;
6937;SDS011;40040;42.706;23.372;2023-07-20T00:31:52;4.95;;;2.65;;
6937;SDS011;40040;42.706;23.372;2023-07-20T00:34:20;7.40;;;2.50;;
6937;SDS011;40040;42.706;23.372;2023-07-20T00:36:48;5.93;;;2.80;;
6937;SDS011;40040;42.706;23.372;2023-07-20T00:39:15;8.52;;;2.80;;
6937;SDS011;40040;42.706;23.372;2023-07-20T00:41:42;2.85;;;2.65;;
6937;SDS011;40040;42.706;23.372;2023-07-20T00:44:09;4.53;;;2.70;;
6937;SDS011;40040;42.706;23.372;2023-07-20T00:46:36;3.42;;;2.42;;
6937;SDS011;40040;42.706;23.372;2023-07-20T00:49:04;2.97;;;2.70;;
6937;SDS011;40040;42.706;23.372;2023-07-20T00:51:31;3.95;;;2.45;;
6937;SDS011;40040;42.706;23.372;2023-07-20T00:53:59;3.92;;;2.65;;
6937;SDS011;40040;42.706;23.372;2023-07-20T00:56:26;4.18;;;2.58;;
6937;SDS011;40040;42.706;23.372;2023-07-20T00:58:53;2.53;;;2.33;;
6937;SDS011;40040;42.706;23.372;2023-07-20T01:01:21;5.28;;;2.53;;
6937;SDS011;40040;42.706;23.372;2023-07-20T01:03:48;3.90;;;2.75;;
6937;SDS011;40040;42.706;23.372;2023-07-20T01:06:17;5.47;;;2.80;;
6937;SDS011;40040;42.706;23.372;2023-07-20T01:08:56;4.07;;;2.70;;
6937;SDS011;40040;42.706;23.372;2023-07-20T01:11:31;2.78;;;2.53;;
6937;SDS011;40040;42.706;23.372;2023-07-20T01:14:03;3.53;;;2.53;;
6937;SDS011;40040;42.706;23.372;2023-07-20T01:16:31;5.65;;;2.70;;
6937;SDS011;40040;42.706;23.372;2023-07-20T01:18:59;5.88;;;2.60;;
6937;SDS011;40040;42.706;23.372;2023-07-20T01:21:27;4.65;;;2.60;;
6937;SDS011;40040;42.706;23.372;2023-07-20T01:24:09;4.60;;;2.60;;
6937;SDS011;40040;42.706;23.372;2023-07-20T01:30:08;5.28;;;2.70;;
6937;SDS011;40040;42.706;23.372;2023-07-20T01:32:52;2.70;;;2.50;;
6937;SDS011;40040;42.706;23.372;2023-07-20T01:35:22;5.07;;;2.65;;
6937;SDS011;40040;42.706;23.372;2023-07-20T01:37:53;7.05;;;2.72;;
6937;SDS011;40040;42.706;23.372;2023-07-20T01:40:20;6.28;;;2.80;;
6937;SDS011;40040;42.706;23.372;2023-07-20T01:42:50;4.22;;;2.67;;
6937;SDS011;40040;42.706;23.372;2023-07-20T01:45:18;6.15;;;3.10;;
6937;SDS011;40040;42.706;23.372;2023-07-20T01:47:44;3.80;;;3.22;;
6937;SDS011;40040;42.706;23.372;2023-07-20T01:50:13;4.38;;;2.92;;
6937;SDS011;40040;42.706;23.372;2023-07-20T01:52:39;4.03;;;2.90;;
6937;SDS011;40040;42.706;23.372;2023-07-20T01:55:07;7.25;;;3.00;;
6937;SDS011;40040;42.706;23.372;2023-07-20T01:57:34;4.10;;;2.83;;
6937;SDS011;40040;42.706;23.372;2023-07-20T02:00:01;4.40;;;3.05;;
6937;SDS011;40040;42.706;23.372;2023-07-20T02:02:28;5.80;;;3.10;;
6937;SDS011;40040;42.706;23.372;2023-07-20T02:04:54;4.43;;;3.00;;
6937;SDS011;40040;42.706;23.372;2023-07-20T02:07:23;5.28;;;3.22;;
6937;SDS011;40040;42.706;23.372;2023-07-20T02:09:50;5.40;;;3.15;;
6937;SDS011;40040;42.706;23.372;2023-07-20T02:12:17;3.97;;;3.17;;
6937;SDS011;40040;42.706;23.372;2023-07-20T02:14:43;4.53;;;2.95;;
6937;SDS011;40040;42.706;23.372;2023-07-20T02:17:10;4.60;;;3.10;;
6937;SDS011;40040;42.706;23.372;2023-07-20T02:19:37;3.78;;;2.90;;
6937;SDS011;40040;42.706;23.372;2023-07-20T02:22:04;3.15;;;2.90;;
6937;SDS011;40040;42.706;23.372;2023-07-20T02:24:33;3.30;;;3.03;;
6937;SDS011;40040;42.706;23.372;2023-07-20T02:27:00;6.22;;;3.20;;
6937;SDS011;40040;42.706;23.372;2023-07-20T02:29:27;5.50;;;3.20;;
6937;SDS011;40040;42.706;23.372;2023-07-20T02:31:54;5.35;;;3.33;;
6937;SDS011;40040;42.706;23.372;2023-07-20T02:34:21;4.78;;;3.30;;
6937;SDS011;40040;42.706;23.372;2023-07-20T02:36:47;4.53;;;3.00;;
6937;SDS011;40040;42.706;23.372;2023-07-20T02:39:14;5.47;;;3.22;;
6937;SDS011;40040;42.706;23.372;2023-07-20T02:41:42;6.03;;;3.15;;
6937;SDS011;40040;42.706;23.372;2023-07-20T02:44:09;5.70;;;3.17;;
6937;SDS011;40040;42.706;23.372;2023-07-20T02:46:36;5.13;;;2.90;;
6937;SDS011;40040;42.706;23.372;2023-07-20T02:49:03;6.90;;;3.20;;
6937;SDS011;40040;42.706;23.372;2023-07-20T02:51:30;5.25;;;3.10;;
6937;SDS011;40040;42.706;23.372;2023-07-20T02:53:57;5.32;;;2.78;;
6937;SDS011;40040;42.706;23.372;2023-07-20T02:56:23;6.63;;;3.30;;
6937;SDS011;40040;42.706;23.372;2023-07-20T02:58:52;3.25;;;2.88;;
6937;SDS011;40040;42.706;23.372;2023-07-20T03:01:18;5.97;;;3.00;;
6937;SDS011;40040;42.706;23.372;2023-07-20T03:03:45;7.50;;;3.10;;
6937;SDS011;40040;42.706;23.372;2023-07-20T03:06:12;4.47;;;3.05;;
6937;SDS011;40040;42.706;23.372;2023-07-20T03:08:39;6.80;;;3.05;;
6937;SDS011;40040;42.706;23.372;2023-07-20T03:11:12;5.07;;;3.05;;
6937;SDS011;40040;42.706;23.372;2023-07-20T03:13:39;7.03;;;3.15;;
6937;SDS011;40040;42.706;23.372;2023-07-20T03:16:07;4.22;;;3.22;;
6937;SDS011;40040;42.706;23.372;2023-07-20T03:18:37;7.05;;;3.30;;
6937;SDS011;40040;42.706;23.372;2023-07-20T03:21:04;3.72;;;3.33;;
6937;SDS011;40040;42.706;23.372;2023-07-20T03:23:31;6.35;;;3.22;;
6937;SDS011;40040;42.706;23.372;2023-07-20T03:25:58;6.90;;;3.40;;
6937;SDS011;40040;42.706;23.372;2023-07-20T03:28:25;5.22;;;3.20;;
6937;SDS011;40040;42.706;23.372;2023-07-20T03:30:55;6.82;;;3.70;;
6937;SDS011;40040;42.706;23.372;2023-07-20T03:33:24;4.97;;;3.67;;
6937;SDS011;40040;42.706;23.372;2023-07-20T03:35:52;5.65;;;3.30;;
6937;SDS011;40040;42.706;23.372;2023-07-20T03:38:20;4.78;;;3.25;;
6937;SDS011;40040;42.706;23.372;2023-07-20T03:40:49;6.43;;;3.85;;
6937;SDS011;40040;42.706;23.372;2023-07-20T03:43:17;5.65;;;3.97;;
6937;SDS011;40040;42.706;23.372;2023-07-20T03:45:44;5.18;;;3.90;;
6937;SDS011;40040;42.706;23.372;2023-07-20T03:48:13;5.80;;;3.72;;
6937;SDS011;40040;42.706;23.372;2023-07-20T03:50:41;6.78;;;3.83;;
6937;SDS011;40040;42.706;23.372;2023-07-20T03:53:08;8.90;;;4.13;;
6937;SDS011;40040;42.706;23.372;2023-07-20T03:55:34;5.53;;;3.80;;
6937;SDS011;40040;42.706;23.372;2023-07-20T03:58:01;5.47;;;3.50;;
6937;SDS011;40040;42.706;23.372;2023-07-20T04:00:28;5.18;;;4.00;;
6937;SDS011;40040;42.706;23.372;2023-07-20T04:02:55;5.47;;;3.83;;
6937;SDS011;40040;42.706;23.372;2023-07-20T04:05:22;4.07;;;3.60;;
6937;SDS011;40040;42.706;23.372;2023-07-20T04:07:50;7.22;;;4.22;;
6937;SDS011;40040;42.706;23.372;2023-07-20T04:10:17;6.22;;;4.30;;
6937;SDS011;40040;42.706;23.372;2023-07-20T04:12:44;5.47;;;4.07;;
6937;SDS011;40040;42.706;23.372;2023-07-20T04:15:12;8.40;;;4.13;;
6937;SDS011;40040;42.706;23.372;2023-07-20T04:17:39;5.60;;;3.88;;
6937;SDS011;40040;42.706;23.372;2023-07-20T04:20:06;7.07;;;4.72;;
6937;SDS011;40040;42.706;23.372;2023-07-20T04:22:34;5.22;;;4.50;;
6937;SDS011;40040;42.706;23.372;2023-07-20T04:25:03;8.35;;;3.90;;
6937;SDS011;40040;42.706;23.372;2023-07-20T04:27:30;9.75;;;5.05;;
6937;SDS011;40040;42.706;23.372;2023-07-20T04:29:57;8.02;;;4.90;;
6937;SDS011;40040;42.706;23.372;2023-07-20T04:32:24;5.50;;;4.72;;
6937;SDS011;40040;42.706;23.372;2023-07-20T04:34:52;10.90;;;5.05;;
6937;SDS011;40040;42.706;23.372;2023-07-20T04:37:18;7.18;;;4.60;;
6937;SDS011;40040;42.706;23.372;2023-07-20T04:39:45;7.88;;;4.40;;
6937;SDS011;40040;42.706;23.372;2023-07-20T04:42:13;6.35;;;4.20;;
6937;SDS011;40040;42.706;23.372;2023-07-20T04:44:40;5.43;;;4.22;;
6937;SDS011;40040;42.706;23.372;2023-07-20T04:47:07;10.02;;;4.28;;
6937;SDS011;40040;42.706;23.372;2023-07-20T04:49:34;10.60;;;4.57;;
6937;SDS011;40040;42.706;23.372;2023-07-20T04:52:01;7.40;;;4.10;;
6937;SDS011;40040;42.706;23.372;2023-07-20T04:54:29;4.68;;;4.07;;
6937;SDS011;40040;42.706;23.372;2023-07-20T04:56:55;7.07;;;4.30;;
6937;SDS011;40040;42.706;23.372;2023-07-20T04:59:24;9.05;;;4.57;;
6937;SDS011;40040;42.706;23.372;2023-07-20T05:01:50;7.00;;;4.10;;
6937;SDS011;40040;42.706;23.372;2023-07-20T05:04:17;6.45;;;4.22;;
6937;SDS011;40040;42.706;23.372;2023-07-20T05:06:44;8.52;;;3.97;;
6937;SDS011;40040;42.706;23.372;2023-07-20T05:09:11;6.78;;;3.80;;
6937;SDS011;40040;42.706;23.372;2023-07-20T05:11:38;8.35;;;4.20;;
6937;SDS011;40040;42.706;23.372;2023-07-20T05:14:05;5.35;;;3.78;;
6937;SDS011;40040;42.706;23.372;2023-07-20T05:16:33;5.85;;;4.20;;
6937;SDS011;40040;42.706;23.372;2023-07-20T05:19:00;7.05;;;4.80;;
6937;SDS011;40040;42.706;23.372;2023-07-20T05:21:27;6.75;;;4.13;;
6937;SDS011;40040;42.706;23.372;2023-07-20T05:23:53;7.57;;;4.45;;
6937;SDS011;40040;42.706;23.372;2023-07-20T05:26:20;7.60;;;4.57;;
6937;SDS011;40040;42.706;23.372;2023-07-20T05:28:47;8.85;;;4.75;;
6937;SDS011;40040;42.706;23.372;2023-07-20T05:31:14;10.68;;;5.30;;
6937;SDS011;40040;42.706;23.372;2023-07-20T05:33:42;8.68;;;4.85;;
6937;SDS011;40040;42.706;23.372;2023-07-20T05:36:24;7.53;;;5.63;;
6937;SDS011;40040;42.706;23.372;2023-07-20T05:38:51;8.40;;;5.40;;
6937;SDS011;40040;42.706;23.372;2023-07-20T05:41:18;9.32;;;5.35;;
6937;SDS011;40040;42.706;23.372;2023-07-20T05:43:45;9.43;;;5.40;;
6937;SDS011;40040;42.706;23.372;2023-07-20T05:46:11;7.10;;;5.78;;
6937;SDS011;40040;42.706;23.372;2023-07-20T05:48:38;6.55;;;5.70;;
6937;SDS011;40040;42.706;23.372;2023-07-20T05:51:07;10.50;;;6.00;;
6937;SDS011;40040;42.706;23.372;2023-07-20T05:53:34;8.05;;;5.22;;
6937;SDS011;40040;42.706;23.372;2023-07-20T05:56:01;6.88;;;4.78;;
6937;SDS011;40040;42.706;23.372;2023-07-20T05:58:28;10.55;;;5.25;;
6937;SDS011;40040;42.706;23.372;2023-07-20T06:00:55;8.65;;;5.35;;
6937;SDS011;40040;42.706;23.372;2023-07-20T06:03:22;6.63;;;5.18;;
6937;SDS011;40040;42.706;23.372;2023-07-20T06:05:49;8.98;;;4.70;;
6937;SDS011;40040;42.706;23.372;2023-07-20T06:08:18;6.07;;;4.65;;
6937;SDS011;40040;42.706;23.372;2023-07-20T06:10:49;6.70;;;4.32;;
6937;SDS011;40040;42.706;23.372;2023-07-20T06:13:17;6.10;;;4.32;;
6937;SDS011;40040;42.706;23.372;2023-07-20T06:15:43;4.40;;;3.85;;
6937;SDS011;40040;42.706;23.372;2023-07-20T06:18:10;8.07;;;5.35;;
6937;SDS011;40040;42.706;23.372;2023-07-20T06:20:37;6.40;;;4.70;;
6937;SDS011;40040;42.706;23.372;2023-07-20T06:23:04;7.30;;;5.10;;
6937;SDS011;40040;42.706;23.372;2023-07-20T06:25:32;6.13;;;5.13;;
6937;SDS011;40040;42.706;23.372;2023-07-20T06:27:59;9.18;;;5.80;;
6937;SDS011;40040;42.706;23.372;2023-07-20T06:30:25;7.82;;;5.80;;
6937;SDS011;40040;42.706;23.372;2023-07-20T06:32:52;9.25;;;5.68;;
6937;SDS011;40040;42.706;23.372;2023-07-20T06:35:19;11.43;;;6.15;;
6937;SDS011;40040;42.706;23.372;2023-07-20T06:37:46;7.88;;;5.53;;
6937;SDS011;40040;42.706;23.372;2023-07-20T06:40:13;7.57;;;5.93;;
6937;SDS011;40040;42.706;23.372;2023-07-20T06:42:41;9.30;;;6.20;;
6937;SDS011;40040;42.706;23.372;2023-07-20T06:45:08;8.00;;;5.05;;
6937;SDS011;40040;42.706;23.372;2023-07-20T06:47:37;5.65;;;5.10;;
6937;SDS011;40040;42.706;23.372;2023-07-20T06:50:05;10.25;;;5.38;;
6937;SDS011;40040;42.706;23.372;2023-07-20T06:52:32;9.68;;;4.82;;
6937;SDS011;40040;42.706;23.372;2023-07-20T06:54:59;7.85;;;4.80;;
6937;SDS011;40040;42.706;23.372;2023-07-20T06:57:26;7.32;;;4.50;;
6937;SDS011;40040;42.706;23.372;2023-07-20T06:59:54;7.78;;;4.50;;
6937;SDS011;40040;42.706;23.372;2023-07-20T07:02:21;10.73;;;5.55;;
6937;SDS011;40040;42.706;23.372;2023-07-20T07:04:48;7.70;;;5.32;;
6937;SDS011;40040;42.706;23.372;2023-07-20T07:07:15;9.75;;;4.35;;
6937;SDS011;40040;42.706;23.372;2023-07-20T07:09:42;4.40;;;4.00;;
6937;SDS011;40040;42.706;23.372;2023-07-20T07:12:09;9.57;;;4.60;;
6937;SDS011;40040;42.706;23.372;2023-07-20T07:14:35;7.90;;;4.05;;
6937;SDS011;40040;42.706;23.372;2023-07-20T07:17:04;6.78;;;4.25;;
6937;SDS011;40040;42.706;23.372;2023-07-20T07:19:31;9.35;;;4.47;;
6937;SDS011;40040;42.706;23.372;2023-07-20T07:21:58;8.32;;;4.72;;
6937;SDS011;40040;42.706;23.372;2023-07-20T07:24:24;5.15;;;4.00;;
6937;SDS011;40040;42.706;23.372;2023-07-20T07:26:53;10.00;;;3.97;;
6937;SDS011;40040;42.706;23.372;2023-07-20T07:29:19;6.93;;;4.05;;
6937;SDS011;40040;42.706;23.372;2023-07-20T07:31:46;6.03;;;4.30;;
6937;SDS011;40040;42.706;23.372;2023-07-20T07:34:14;4.88;;;4.20;;
6937;SDS011;40040;42.706;23.372;2023-07-20T07:36:41;5.28;;;4.18;;
6937;SDS011;40040;42.706;23.372;2023-07-20T07:39:08;5.85;;;4.15;;
6937;SDS011;40040;42.706;23.372;2023-07-20T07:41:35;4.35;;;3.83;;
6937;SDS011;40040;42.706;23.372;2023-07-20T07:44:02;9.20;;;4.00;;
6937;SDS011;40040;42.706;23.372;2023-07-20T07:46:29;7.00;;;3.85;;
6937;SDS011;40040;42.706;23.372;2023-07-20T07:48:56;4.30;;;3.90;;
6937;SDS011;40040;42.706;23.372;2023-07-20T07:51:24;7.03;;;3.88;;
6937;SDS011;40040;42.706;23.372;2023-07-20T07:53:52;7.68;;;4.10;;
6937;SDS011;40040;42.706;23.372;2023-07-20T07:56:19;7.53;;;4.07;;
6937;SDS011;40040;42.706;23.372;2023-07-20T07:58:47;7.28;;;4.28;;
6937;SDS011;40040;42.706;23.372;2023-07-20T08:01:14;8.80;;;4.60;;
6937;SDS011;40040;42.706;23.372;2023-07-20T08:03:41;6.32;;;4.00;;
6937;SDS011;40040;42.706;23.372;2023-07-20T08:06:11;9.82;;;4.70;;
6937;SDS011;40040;42.706;23.372;2023-07-20T08:08:39;7.25;;;4.32;;
6937;SDS011;40040;42.706;23.372;2023-07-20T08:11:06;9.18;;;4.35;;
6937;SDS011;40040;42.706;23.372;2023-07-20T08:13:33;7.47;;;4.15;;
6937;SDS011;40040;42.706;23.372;2023-07-20T08:16:00;7.63;;;4.20;;
6937;SDS011;40040;42.706;23.372;2023-07-20T08:18:27;8.82;;;4.03;;
6937;SDS011;40040;42.706;23.372;2023-07-20T08:20:54;6.47;;;4.22;;
6937;SDS011;40040;42.706;23.372;2023-07-20T08:23:21;8.32;;;4.15;;
6937;SDS011;40040;42.706;23.372;2023-07-20T08:25:49;9.10;;;4.40;;
6937;SDS011;40040;42.706;23.372;2023-07-20T08:28:16;13.68;;;3.90;;
6937;SDS011;40040;42.706;23.372;2023-07-20T08:30:43;10.95;;;3.50;;
6937;SDS011;40040;42.706;23.372;2023-07-20T08:33:12;7.70;;;3.33;;
6937;SDS011;40040;42.706;23.372;2023-07-20T08:35:40;4.93;;;2.85;;
6937;SDS011;40040;42.706;23.372;2023-07-20T08:38:07;9.63;;;3.35;;
6937;SDS011;40040;42.706;23.372;2023-07-20T08:40:35;4.70;;;3.40;;
6937;SDS011;40040;42.706;23.372;2023-07-20T08:43:07;6.32;;;3.40;;
6937;SDS011;40040;42.706;23.372;2023-07-20T08:45:35;4.97;;;2.50;;
6937;SDS011;40040;42.706;23.372;2023-07-20T08:48:05;8.32;;;3.33;;
6937;SDS011;40040;42.706;23.372;2023-07-20T08:50:33;8.98;;;3.50;;
6937;SDS011;40040;42.706;23.372;2023-07-20T08:53:01;6.72;;;2.92;;
6937;SDS011;40040;42.706;23.372;2023-07-20T08:55:28;6.35;;;2.45;;
6937;SDS011;40040;42.706;23.372;2023-07-20T08:57:57;4.53;;;2.45;;
6937;SDS011;40040;42.706;23.372;2023-07-20T09:00:26;4.45;;;2.55;;
6937;SDS011;40040;42.706;23.372;2023-07-20T09:02:54;6.03;;;2.72;;
6937;SDS011;40040;42.706;23.372;2023-07-20T09:05:23;4.15;;;2.40;;
6937;SDS011;40040;42.706;23.372;2023-07-20T09:07:51;5.75;;;2.45;;
6937;SDS011;40040;42.706;23.372;2023-07-20T09:10:19;5.97;;;2.60;;
6937;SDS011;40040;42.706;23.372;2023-07-20T09:12:47;9.80;;;2.63;;
6937;SDS011;40040;42.706;23.372;2023-07-20T09:15:14;5.47;;;2.78;;
6937;SDS011;40040;42.706;23.372;2023-07-20T09:17:46;3.08;;;2.42;;
6937;SDS011;40040;42.706;23.372;2023-07-20T09:20:14;5.57;;;2.60;;
6937;SDS011;40040;42.706;23.372;2023-07-20T09:22:42;4.10;;;2.50;;
6937;SDS011;40040;42.706;23.372;2023-07-20T09:25:11;9.65;;;2.72;;
6937;SDS011;40040;42.706;23.372;2023-07-20T09:27:38;4.05;;;2.55;;
6937;SDS011;40040;42.706;23.372;2023-07-20T09:30:07;4.47;;;2.85;;
6937;SDS011;40040;42.706;23.372;2023-07-20T09:32:38;3.90;;;2.50;;
6937;SDS011;40040;42.706;23.372;2023-07-20T09:35:10;5.18;;;2.50;;
6937;SDS011;40040;42.706;23.372;2023-07-20T09:37:40;2.45;;;2.20;;
6937;SDS011;40040;42.706;23.372;2023-07-20T09:40:11;4.10;;;2.28;;
6937;SDS011;40040;42.706;23.372;2023-07-20T09:42:42;5.45;;;2.17;;
6937;SDS011;40040;42.706;23.372;2023-07-20T09:45:09;2.20;;;2.00;;
6937;SDS011;40040;42.706;23.372;2023-07-20T09:47:37;3.30;;;2.40;;
6937;SDS011;40040;42.706;23.372;2023-07-20T09:50:05;4.97;;;2.22;;
6937;SDS011;40040;42.706;23.372;2023-07-20T09:52:37;4.80;;;2.60;;
6937;SDS011;40040;42.706;23.372;2023-07-20T09:55:06;3.25;;;2.33;;
6937;SDS011;40040;42.706;23.372;2023-07-20T09:57:34;7.22;;;2.45;;
6937;SDS011;40040;42.706;23.372;2023-07-20T10:00:06;6.13;;;2.38;;
6937;SDS011;40040;42.706;23.372;2023-07-20T10:02:41;2.60;;;2.20;;
6937;SDS011;40040;42.706;23.372;2023-07-20T10:05:10;6.63;;;2.47;;
6937;SDS011;40040;42.706;23.372;2023-07-20T10:07:42;3.53;;;1.95;;
6937;SDS011;40040;42.706;23.372;2023-07-20T10:10:11;4.88;;;2.28;;
6937;SDS011;40040;42.706;23.372;2023-07-20T10:12:40;5.07;;;2.30;;
6937;SDS011;40040;42.706;23.372;2023-07-20T10:15:11;4.97;;;2.20;;
6937;SDS011;40040;42.706;23.372;2023-07-20T10:17:56;2.45;;;2.03;;
6937;SDS011;40040;42.706;23.372;2023-07-20T10:20:26;4.90;;;2.13;;
6937;SDS011;40040;42.706;23.372;2023-07-20T10:22:55;2.40;;;2.03;;
6937;SDS011;40040;42.706;23.372;2023-07-20T10:25:23;4.70;;;2.58;;
6937;SDS011;40040;42.706;23.372;2023-07-20T10:27:50;3.47;;;2.38;;
6937;SDS011;40040;42.706;23.372;2023-07-20T10:30:18;3.83;;;2.20;;
6937;SDS011;40040;42.706;23.372;2023-07-20T10:32:45;3.58;;;2.47;;
6937;SDS011;40040;42.706;23.372;2023-07-20T10:35:13;6.57;;;2.47;;
6937;SDS011;40040;42.706;23.372;2023-07-20T10:37:55;4.55;;;2.53;;
6937;SDS011;40040;42.706;23.372;2023-07-20T10:40:27;5.57;;;2.78;;
6937;SDS011;40040;42.706;23.372;2023-07-20T10:42:57;5.82;;;2.20;;
6937;SDS011;40040;42.706;23.372;2023-07-20T10:45:35;2.97;;;2.30;;
6937;SDS011;40040;42.706;23.372;2023-07-20T10:48:15;4.40;;;2.50;;
6937;SDS011;40040;42.706;23.372;2023-07-20T10:50:43;2.20;;;1.95;;
6937;SDS011;40040;42.706;23.372;2023-07-20T10:53:12;4.53;;;2.55;;
6937;SDS011;40040;42.706;23.372;2023-07-20T10:55:40;5.18;;;2.80;;
6937;SDS011;40040;42.706;23.372;2023-07-20T10:58:09;3.72;;;2.08;;
6937;SDS011;40040;42.706;23.372;2023-07-20T11:00:37;2.25;;;2.05;;
6937;SDS011;40040;42.706;23.372;2023-07-20T11:03:30;5.43;;;2.35;;
6937;SDS011;40040;42.706;23.372;2023-07-20T11:05:59;2.88;;;2.22;;
6937;SDS011;40040;42.706;23.372;2023-07-20T11:08:47;3.20;;;2.20;;
6937;SDS011;40040;42.706;23.372;2023-07-20T11:11:20;2.30;;;1.95;;
6937;SDS011;40040;42.706;23.372;2023-07-20T11:13:54;5.57;;;2.17;;
6937;SDS011;40040;42.706;23.372;2023-07-20T11:16:32;3.80;;;2.40;;
6937;SDS011;40040;42.706;23.372;2023-07-20T11:19:00;3.88;;;2.40;;
6937;SDS011;40040;42.706;23.372;2023-07-20T11:21:27;3.40;;;2.40;;
6937;SDS011;40040;42.706;23.372;2023-07-20T11:23:56;3.08;;;2.80;;
6937;SDS011;40040;42.706;23.372;2023-07-20T11:26:23;3.03;;;2.42;;
6937;SDS011;40040;42.706;23.372;2023-07-20T11:28:51;5.97;;;3.50;;
6937;SDS011;40040;42.706;23.372;2023-07-20T11:31:18;5.55;;;3.38;;
6937;SDS011;40040;42.706;23.372;2023-07-20T11:33:45;6.22;;;2.85;;
6937;SDS011;40040;42.706;23.372;2023-07-20T11:36:12;5.53;;;2.85;;
6937;SDS011;40040;42.706;23.372;2023-07-20T11:38:41;4.45;;;2.88;;
6937;SDS011;40040;42.706;23.372;2023-07-20T11:41:10;6.05;;;2.97;;
6937;SDS011;40040;42.706;23.372;2023-07-20T11:43:37;4.45;;;2.97;;
6937;SDS011;40040;42.706;23.372;2023-07-20T11:46:05;5.13;;;3.88;;
6937;SDS011;40040;42.706;23.372;2023-07-20T11:48:32;8.77;;;3.50;;
6937;SDS011;40040;42.706;23.372;2023-07-20T11:50:59;4.75;;;2.95;;
6937;SDS011;40040;42.706;23.372;2023-07-20T11:53:25;8.68;;;4.00;;
6937;SDS011;40040;42.706;23.372;2023-07-20T11:55:52;5.20;;;3.38;;
6937;SDS011;40040;42.706;23.372;2023-07-20T11:58:22;5.47;;;3.40;;
6937;SDS011;40040;42.706;23.372;2023-07-20T12:00:48;4.25;;;3.60;;
6937;SDS011;40040;42.706;23.372;2023-07-20T12:03:15;3.38;;;3.03;;
6937;SDS011;40040;42.706;23.372;2023-07-20T12:05:42;3.05;;;2.67;;
6937;SDS011;40040;42.706;23.372;2023-07-20T12:08:09;6.22;;;2.97;;
6937;SDS011;40040;42.706;23.372;2023-07-20T12:10:38;3.90;;;2.53;;
6937;SDS011;40040;42.706;23.372;2023-07-20T12:13:09;3.83;;;3.10;;
6937;SDS011;40040;42.706;23.372;2023-07-20T12:15:38;4.68;;;3.30;;
6937;SDS011;40040;42.706;23.372;2023-07-20T12:18:04;5.28;;;3.15;;
6937;SDS011;40040;42.706;23.372;2023-07-20T12:20:32;3.47;;;3.00;;
6937;SDS011;40040;42.706;23.372;2023-07-20T12:23:02;3.22;;;2.92;;
6937;SDS011;40040;42.706;23.372;2023-07-20T12:25:36;3.42;;;3.03;;
6937;SDS011;40040;42.706;23.372;2023-07-20T12:28:04;5.28;;;2.90;;
6937;SDS011;40040;42.706;23.372;2023-07-20T12:30:31;4.75;;;3.17;;
6937;SDS011;40040;42.706;23.372;2023-07-20T12:33:00;4.97;;;3.17;;
6937;SDS011;40040;42.706;23.372;2023-07-20T12:35:27;5.60;;;3.53;;
6937;SDS011;40040;42.706;23.372;2023-07-20T12:37:56;4.20;;;2.80;;
6937;SDS011;40040;42.706;23.372;2023-07-20T12:40:23;6.25;;;3.15;;
6937;SDS011;40040;42.706;23.372;2023-07-20T12:42:50;3.25;;;2.92;;
6937;SDS011;40040;42.706;23.372;2023-07-20T12:45:17;5.30;;;2.97;;
6937;SDS011;40040;42.706;23.372;2023-07-20T12:47:44;3.13;;;2.88;;
6937;SDS011;40040;42.706;23.372;2023-07-20T12:50:12;5.78;;;3.58;;
6937;SDS011;40040;42.706;23.372;2023-07-20T12:52:39;9.25;;;4.10;;
6937;SDS011;40040;42.706;23.372;2023-07-20T12:55:07;7.38;;;3.10;;
6937;SDS011;40040;42.706;23.372;2023-07-20T12:57:35;4.00;;;2.72;;
6937;SDS011;40040;42.706;23.372;2023-07-20T13:00:03;4.43;;;2.75;;
6937;SDS011;40040;42.706;23.372;2023-07-20T13:02:31;7.35;;;2.90;;
6937;SDS011;40040;42.706;23.372;2023-07-20T13:04:58;5.15;;;3.17;;
6937;SDS011;40040;42.706;23.372;2023-07-20T13:07:30;4.65;;;2.60;;
6937;SDS011;40040;42.706;23.372;2023-07-20T13:09:58;6.43;;;3.20;;
6937;SDS011;40040;42.706;23.372;2023-07-20T13:12:26;6.75;;;3.10;;
6937;SDS011;40040;42.706;23.372;2023-07-20T13:14:53;8.75;;;3.10;;
6937;SDS011;40040;42.706;23.372;2023-07-20T13:17:21;11.90;;;3.15;;
6937;SDS011;40040;42.706;23.372;2023-07-20T13:19:48;4.93;;;2.70;;
6937;SDS011;40040;42.706;23.372;2023-07-20T13:22:14;7.00;;;3.00;;
6937;SDS011;40040;42.706;23.372;2023-07-20T13:24:43;4.43;;;2.60;;
6937;SDS011;40040;42.706;23.372;2023-07-20T13:27:11;7.15;;;2.70;;
6937;SDS011;40040;42.706;23.372;2023-07-20T13:29:38;4.43;;;2.80;;
6937;SDS011;40040;42.706;23.372;2023-07-20T13:32:05;4.00;;;3.05;;
6937;SDS011;40040;42.706;23.372;2023-07-20T13:34:33;5.82;;;2.92;;
6937;SDS011;40040;42.706;23.372;2023-07-20T13:37:00;2.72;;;2.33;;
6937;SDS011;40040;42.706;23.372;2023-07-20T13:39:27;3.90;;;2.78;;
6937;SDS011;40040;42.706;23.372;2023-07-20T13:41:55;5.45;;;2.80;;
6937;SDS011;40040;42.706;23.372;2023-07-20T13:44:22;3.78;;;2.90;;
6937;SDS011;40040;42.706;23.372;2023-07-20T13:46:49;4.90;;;2.90;;
6937;SDS011;40040;42.706;23.372;2023-07-20T13:49:16;3.20;;;2.50;;
6937;SDS011;40040;42.706;23.372;2023-07-20T13:51:43;4.82;;;2.40;;
6937;SDS011;40040;42.706;23.372;2023-07-20T13:54:10;5.57;;;2.60;;
6937;SDS011;40040;42.706;23.372;2023-07-20T13:56:36;6.50;;;2.60;;
6937;SDS011;40040;42.706;23.372;2023-07-20T13:59:05;3.05;;;2.25;;
6937;SDS011;40040;42.706;23.372;2023-07-20T14:01:32;3.25;;;2.35;;
6937;SDS011;40040;42.706;23.372;2023-07-20T14:03:59;5.15;;;2.70;;
6937;SDS011;40040;42.706;23.372;2023-07-20T14:06:29;4.53;;;2.40;;
6937;SDS011;40040;42.706;23.372;2023-07-20T14:08:56;4.70;;;2.70;;
6937;SDS011;40040;42.706;23.372;2023-07-20T14:11:23;2.92;;;2.20;;
6937;SDS011;40040;42.706;23.372;2023-07-20T14:13:50;4.05;;;2.00;;
6937;SDS011;40040;42.706;23.372;2023-07-20T14:16:19;3.38;;;1.98;;
6937;SDS011;40040;42.706;23.372;2023-07-20T14:18:46;3.25;;;2.30;;
6937;SDS011;40040;42.706;23.372;2023-07-20T14:21:14;5.03;;;2.75;;
6937;SDS011;40040;42.706;23.372;2023-07-20T14:23:40;5.30;;;2.67;;
6937;SDS011;40040;42.706;23.372;2023-07-20T14:26:07;4.40;;;2.40;;
6937;SDS011;40040;42.706;23.372;2023-07-20T14:28:34;9.35;;;2.45;;
6937;SDS011;40040;42.706;23.372;2023-07-20T14:31:01;5.53;;;2.55;;
6937;SDS011;40040;42.706;23.372;2023-07-20T14:33:29;6.05;;;2.60;;
6937;SDS011;40040;42.706;23.372;2023-07-20T14:35:56;4.32;;;2.67;;
6937;SDS011;40040;42.706;23.372;2023-07-20T14:38:23;11.63;;;2.35;;
6937;SDS011;40040;42.706;23.372;2023-07-20T14:40:50;5.43;;;2.20;;
6937;SDS011;40040;42.706;23.372;2023-07-20T14:43:17;7.65;;;2.30;;
6937;SDS011;40040;42.706;23.372;2023-07-20T14:45:44;4.07;;;2.30;;
6937;SDS011;40040;42.706;23.372;2023-07-20T14:48:11;5.18;;;2.58;;
6937;SDS011;40040;42.706;23.372;2023-07-20T14:50:39;4.55;;;2.85;;
6937;SDS011;40040;42.706;23.372;2023-07-20T14:53:05;7.80;;;4.65;;
6937;SDS011;40040;42.706;23.372;2023-07-20T14:55:32;6.15;;;2.60;;
6937;SDS011;40040;42.706;23.372;2023-07-20T14:57:59;6.78;;;2.38;;